Time;durP1;ratioP1;P1;durP2;ratioP2;P2;SDS_P1;SDS_P2;PMS_P1;PMS_P2;Temp;Humidity;BMP_temperature;BMP_pressure;BME280_temperature;BME280_humidity;BME280_pressure;Samples;Min_cycle;Max_cycle;Signal;HPM_P1;HPM_P2
2021/11/18 00:02:04;;;;;;;30.52;8.05;;;13.00;99.90;;;13.23;72.04;102526.88;5054477;28;20094;-64
2021/11/18 00:04:33;;;;;;;31.05;8.75;;;13.00;99.90;;;13.22;72.18;102536.59;5054376;28;20044;-67
2021/11/18 00:07:01;;;;;;;29.90;7.63;;;12.90;99.90;;;13.03;71.88;102502.72;5054399;28;20107;-67
2021/11/18 00:09:30;;;;;;;26.83;7.35;;;12.90;99.90;;;13.19;72.07;102538.34;5054317;28;20469;-67
2021/11/18 00:12:00;;;;;;;25.77;8.02;;;12.90;99.90;;;13.12;72.24;102529.41;5054372;28;20040;-67
2021/11/18 00:14:29;;;;;;;37.33;8.77;;;12.90;99.90;;;13.11;72.14;102530.28;5054549;28;20106;-67
2021/11/18 00:16:58;;;;;;;27.85;8.23;;;12.80;99.90;;;13.05;72.38;102534.59;5054195;28;20052;-67
2021/11/18 00:19:26;;;;;;;34.38;8.45;;;12.80;99.90;;;13.11;72.34;102529.38;5054604;28;20437;-65
2021/11/18 00:21:55;;;;;;;24.15;7.18;;;12.80;99.90;;;13.19;72.73;102536.56;5054922;28;20065;-65
2021/11/18 00:24:23;;;;;;;34.53;9.05;;;12.90;99.90;;;13.19;72.77;102536.56;5054284;28;20051;-65
2021/11/18 00:26:54;;;;;;;31.42;8.38;;;12.90;99.90;;;13.27;72.74;102534.00;5053991;28;20502;-65
2021/11/18 00:29:28;;;;;;;25.00;7.93;;;13.00;99.90;;;13.28;72.76;102530.44;5054123;28;20045;-67
2021/11/18 00:31:58;;;;;;;30.70;8.25;;;13.00;99.90;;;13.30;72.88;102544.66;5052962;28;20056;-68
2021/11/18 00:34:28;;;;;;;31.58;7.85;;;13.00;99.90;;;13.29;72.55;102549.09;5053819;28;20560;-68
2021/11/18 00:36:56;;;;;;;34.55;7.88;;;13.00;99.90;;;13.09;72.67;102540.00;5053806;28;20444;-68
2021/11/18 00:39:25;;;;;;;29.58;8.40;;;12.90;99.90;;;13.15;72.90;102540.06;5052746;28;20072;-68
2021/11/18 00:41:54;;;;;;;34.85;8.60;;;12.90;99.90;;;13.15;73.44;102556.00;5069078;28;20072;-68
2021/11/18 00:44:23;;;;;;;36.53;8.70;;;12.90;99.90;;;13.17;73.42;102548.06;5052703;28;20059;-68
2021/11/18 00:46:54;;;;;;;31.33;8.18;;;12.80;99.90;;;13.07;73.13;102527.56;5053970;28;20483;-68
2021/11/18 00:49:22;;;;;;;41.45;9.57;;;12.90;99.90;;;13.20;73.19;102554.28;5053925;28;20081;-68
2021/11/18 00:51:50;;;;;;;30.17;8.63;;;12.90;99.90;;;13.19;73.02;102552.53;5053594;28;20045;-68
2021/11/18 00:54:19;;;;;;;37.45;8.35;;;12.90;99.90;;;13.21;73.11;102556.09;5052609;28;20049;-68
2021/11/18 00:56:48;;;;;;;28.92;8.57;;;12.90;99.90;;;13.20;73.20;102554.28;5053760;28;20091;-68
2021/11/18 00:59:17;;;;;;;30.17;8.10;;;12.90;99.90;;;13.23;73.12;102554.34;5053688;28;20135;-68
2021/11/18 01:01:47;;;;;;;32.28;9.02;;;12.90;99.90;;;13.22;73.01;102555.19;5069022;28;20513;-68
2021/11/18 01:04:20;;;;;;;31.30;8.65;;;12.90;99.90;;;13.14;72.63;102553.34;5052393;28;20045;-68
2021/11/18 01:06:50;;;;;;;28.00;7.90;;;12.90;99.90;;;13.00;72.72;102534.53;5068788;28;20456;-68
2021/11/18 01:09:20;;;;;;;31.55;8.35;;;12.90;99.90;;;13.07;72.66;102549.69;5052312;28;20040;-68
2021/11/18 01:11:51;;;;;;;31.25;8.20;;;12.80;99.90;;;13.03;72.71;102550.53;5052218;28;20454;-68
2021/11/18 01:14:24;;;;;;;30.60;7.93;;;12.80;99.90;;;12.99;72.69;102561.97;5052001;28;20048;-69
2021/11/18 01:16:56;;;;;;;30.20;8.15;;;12.70;99.90;;;12.46;71.95;102491.34;5069078;28;20398;-69
2021/11/18 01:19:31;;;;;;;26.95;8.15;;;12.70;99.90;;;12.73;71.75;102559.84;5069245;28;20076;-69
2021/11/18 01:22:06;;;;;;;31.13;7.80;;;12.60;99.90;;;12.69;71.84;102553.59;5052130;28;20056;-69
2021/11/18 01:24:38;;;;;;;31.70;8.13;;;12.50;99.90;;;12.68;72.09;102551.78;5068886;28;20041;-68
2021/11/18 01:27:30;;;;;;;27.15;8.40;;;12.40;99.90;;;12.46;72.04;102523.19;5052164;28;20090;-68
2021/11/18 01:30:15;;;;;;;30.30;8.43;;;12.40;99.90;;;12.61;72.64;102545.53;5051954;28;20508;-68
2021/11/18 01:32:46;;;;;;;27.98;7.72;;;12.30;99.90;;;12.66;72.67;102548.22;5051615;28;20060;-68
2021/11/18 01:35:16;;;;;;;25.00;8.57;;;12.40;99.90;;;12.53;73.13;102520.63;5051976;28;20421;-69
2021/11/18 01:37:45;;;;;;;28.15;7.72;;;12.40;99.90;;;12.65;72.33;102552.66;5068771;28;20457;-68
2021/11/18 01:40:19;;;;;;;30.15;8.27;;;12.40;99.90;;;12.54;71.63;102551.59;5068611;28;20477;-68
2021/11/18 01:42:52;;;;;;;27.83;7.82;;;12.30;99.90;;;12.46;72.22;102555.03;5051993;28;20052;-68
2021/11/18 01:45:23;;;;;;;21.30;7.28;;;12.20;99.90;;;12.37;72.55;102552.22;5053308;28;20487;-68
2021/11/18 01:47:52;;;;;;;25.58;7.57;;;12.20;99.90;;;12.37;72.38;102550.47;5051889;28;20045;-68
2021/11/18 01:50:30;;;;;;;19.98;7.18;;;12.10;99.90;;;12.22;72.14;102547.56;5052745;28;20479;-68
2021/11/18 01:53:02;;;;;;;24.90;7.63;;;12.00;99.90;;;12.30;72.15;102550.34;5068746;28;20041;-68
2021/11/18 01:55:32;;;;;;;27.83;7.85;;;12.00;99.90;;;12.32;72.79;102568.09;5068761;28;20106;-68
2021/11/18 01:58:05;;;;;;;24.05;7.70;;;12.00;99.90;;;12.19;72.84;102555.50;5052802;28;20457;-68
2021/11/18 02:01:10;;;;;;;25.15;7.03;;;12.10;99.90;;;12.19;72.39;102574.06;5052154;28;20053;-68
2021/11/18 02:03:39;;;;;;;;;;;12.00;99.90;;;12.13;72.45;102583.69;5068726;28;20044;-68
2021/11/18 02:06:54;;;;;;;24.60;7.00;;;12.00;99.90;;;12.06;72.09;102584.47;5051924;28;20334;-68
2021/11/18 02:09:27;;;;;;;25.02;7.90;;;11.80;99.90;;;12.03;72.66;102582.63;5051766;28;20438;-69
2021/11/18 02:12:07;;;;;;;28.00;7.90;;;11.80;99.90;;;12.09;73.14;102577.44;5068257;28;20053;-68
2021/11/18 02:14:37;;;;;;;30.38;7.57;;;11.80;99.90;;;12.00;73.11;102585.22;5051958;28;20467;-68
2021/11/18 02:17:07;;;;;;;34.15;8.05;;;11.70;99.90;;;11.91;73.29;102578.88;5051734;28;20072;-68
2021/11/18 02:19:40;;;;;;;26.23;7.80;;;11.70;99.90;;;11.75;73.73;102569.75;5053742;28;20418;-68
2021/11/18 02:22:12;;;;;;;19.25;6.50;;;11.60;99.90;;;11.88;73.86;102598.28;5055584;28;20076;-69
2021/11/18 02:24:44;;;;;;;23.30;7.43;;;11.60;99.90;;;11.94;73.85;102590.44;5055173;28;20057;-67
2021/11/18 02:27:21;;;;;;;24.50;7.72;;;11.60;99.90;;;12.07;74.11;102575.63;5072091;28;20073;-68
2021/11/18 02:29:52;;;;;;;26.48;8.23;;;11.80;99.90;;;12.10;74.39;102583.66;5055341;28;20064;-68
2021/11/18 02:32:29;;;;;;;30.02;7.70;;;11.80;99.90;;;12.18;74.52;102580.22;5055255;28;20065;-68
2021/11/18 02:35:02;;;;;;;39.53;9.30;;;11.80;99.90;;;12.35;75.29;102588.47;5055197;28;20119;-68
2021/11/18 02:37:32;;;;;;;31.48;8.48;;;12.00;99.90;;;12.46;75.69;102581.56;5055164;28;20475;-68
2021/11/18 02:40:00;;;;;;;28.55;8.00;;;12.20;99.90;;;12.60;75.98;102585.34;5056092;28;20115;-68
2021/11/18 02:42:29;;;;;;;38.35;8.57;;;12.30;99.90;;;12.67;76.21;102587.19;5055013;28;20049;-68
2021/11/18 02:44:59;;;;;;;25.77;8.27;;;12.40;99.90;;;12.73;76.09;102581.97;5054795;28;20049;-68
2021/11/18 02:47:28;;;;;;;33.60;8.40;;;12.40;99.90;;;12.78;75.87;102595.31;5071687;28;20041;-68
2021/11/18 02:49:58;;;;;;;31.80;8.50;;;12.50;99.90;;;12.81;75.98;102590.06;5054901;28;20041;-69
2021/11/18 02:52:31;;;;;;;37.28;8.57;;;12.60;99.90;;;12.82;76.17;102587.41;5054826;28;20052;-69
2021/11/18 02:55:05;;;;;;;34.55;8.45;;;12.60;99.90;;;12.86;75.98;102569.75;5071313;28;20079;-69
2021/11/18 02:57:34;;;;;;;29.13;7.72;;;12.70;99.90;;;13.03;75.73;102571.78;5071508;28;20056;-68
2021/11/18 03:00:08;;;;;;;30.55;8.85;;;12.70;99.90;;;12.89;75.60;102569.81;5054664;28;20061;-68
2021/11/18 03:02:37;;;;;;;28.02;7.57;;;12.70;99.90;;;12.76;76.06;102560.75;5071116;28;20060;-68
2021/11/18 03:05:06;;;;;;;27.58;7.55;;;12.60;99.90;;;12.80;76.41;102557.28;5054612;28;20063;-68
2021/11/18 03:07:37;;;;;;;28.65;8.48;;;12.60;99.90;;;12.94;76.08;102574.31;5054539;28;20103;-68
2021/11/18 03:10:07;;;;;;;27.95;7.07;;;12.70;99.90;;;12.98;76.06;102576.13;5054821;28;20048;-68
2021/11/18 03:12:36;;;;;;;29.63;8.32;;;12.70;99.90;;;13.06;75.82;102577.16;5055663;28;20053;-68
2021/11/18 03:15:06;;;;;;;31.83;8.25;;;12.80;99.90;;;13.18;75.04;102581.75;5071067;28;20044;-68
2021/11/18 03:17:36;;;;;;;32.95;7.95;;;12.90;99.90;;;13.21;74.97;102574.69;5054073;28;20056;-68
2021/11/18 03:20:28;;;;;;;33.58;7.78;;;12.90;99.90;;;13.13;75.01;102586.97;5054909;28;20503;-68
2021/11/18 03:23:00;;;;;;;27.67;7.50;;;12.90;99.90;;;13.18;74.88;102571.97;5071041;28;20045;-68
2021/11/18 03:25:32;;;;;;;30.65;7.90;;;12.90;99.90;;;13.11;75.06;102574.53;5054196;28;20040;-68
2021/11/18 03:28:10;;;;;;;26.73;7.32;;;12.90;99.90;;;13.20;74.71;102578.19;5054192;28;20060;-69
2021/11/18 03:30:42;;;;;;;24.27;7.28;;;12.90;99.90;;;13.24;74.47;102579.16;5070542;28;20049;-68
2021/11/18 03:33:23;;;;;;;25.08;7.00;;;12.90;99.90;;;13.27;74.36;102585.41;5070525;28;20102;-68
2021/11/18 03:35:52;;;;;;;26.77;7.50;;;12.90;99.90;;;13.28;74.21;102581.84;5054089;28;20041;-68
2021/11/18 03:38:24;;;;;;;31.50;7.80;;;13.00;99.90;;;13.22;74.21;102576.47;5054954;28;20437;-68
2021/11/18 03:41:09;;;;;;;29.73;7.97;;;12.90;99.90;;;13.14;74.15;102562.19;5070781;28;20084;-68
2021/11/18 03:43:47;;;;;;;25.95;7.53;;;13.00;99.90;;;13.16;74.25;102581.69;5070673;28;20135;-68
2021/11/18 03:46:21;;;;;;;26.70;7.82;;;12.90;99.90;;;13.14;74.06;102583.44;5070241;28;20469;-68
2021/11/18 03:48:51;;;;;;;29.40;7.63;;;12.90;99.90;;;13.24;73.79;102585.34;5070576;28;20045;-68
2021/11/18 03:51:22;;;;;;;29.35;7.55;;;12.90;99.90;;;13.23;73.36;102575.59;5070031;28;20045;-68
2021/11/18 03:53:51;;;;;;;25.35;7.28;;;13.00;99.90;;;13.27;73.12;102574.75;5054975;28;20092;-68
2021/11/18 03:56:23;;;;;;;26.30;7.10;;;13.00;99.90;;;13.17;73.32;102582.59;5070323;28;20415;-68
2021/11/18 03:58:52;;;;;;;30.45;8.45;;;12.90;99.90;;;13.06;73.28;102560.31;5070224;28;20057;-68
2021/11/18 04:01:22;;;;;;;29.60;7.88;;;12.90;99.90;;;13.16;73.26;102584.34;5053620;28;20049;-68
2021/11/18 04:03:54;;;;;;;31.67;8.05;;;12.90;99.90;;;13.19;73.00;102571.13;5053378;28;20415;-68
2021/11/18 04:06:24;;;;;;;25.58;7.70;;;12.90;99.90;;;13.09;72.76;102571.88;5053738;28;20560;-68
2021/11/18 04:09:01;;;;;;;23.98;7.30;;;12.80;99.90;;;12.98;72.82;102583.19;5053421;28;20092;-68
2021/11/18 04:11:30;;;;;;;30.17;7.97;;;12.70;99.90;;;12.89;73.27;102578.63;5070023;28;20136;-68
2021/11/18 04:14:04;;;;;;;24.20;7.30;;;12.60;99.90;;;12.80;73.40;102574.97;5053381;28;20068;-69
2021/11/18 04:16:33;;;;;;;28.27;8.02;;;12.50;99.90;;;12.77;73.62;102577.59;5053218;28;20140;-68
2021/11/18 04:19:04;;;;;;;;;;;12.50;99.90;;;12.60;73.83;102564.09;5053721;28;20060;-68
2021/11/18 04:21:33;;;;;;;26.55;7.30;;;12.40;99.90;;;12.70;73.97;102589.88;5054447;28;19943;-68
2021/11/18 04:24:07;;;;;;;24.08;7.22;;;12.40;99.90;;;12.59;73.90;102587.09;5054347;28;20107;-68
2021/11/18 04:26:36;;;;;;;28.17;8.20;;;12.30;99.90;;;12.53;74.08;102578.13;5069813;28;20552;-68
2021/11/18 04:29:06;;;;;;;29.77;7.53;;;12.20;99.90;;;12.51;73.99;102569.25;5052929;28;20037;-68
2021/11/18 04:31:35;;;;;;;28.23;7.50;;;12.20;99.90;;;12.43;74.07;102578.84;5052925;28;20098;-68
2021/11/18 04:34:06;;;;;;;26.80;7.68;;;12.10;99.90;;;12.33;74.20;102577.81;5053041;28;20041;-68
2021/11/18 04:36:38;;;;;;;31.58;7.43;;;12.10;99.90;;;12.17;74.67;102557.25;5069532;28;20084;-68
2021/11/18 04:39:09;;;;;;;27.90;7.95;;;12.00;99.90;;;12.24;74.77;102574.13;5069655;28;20056;-68
2021/11/18 04:41:38;;;;;;;33.10;7.80;;;11.90;99.90;;;12.01;74.95;102538.38;5053574;28;20079;-68
2021/11/18 04:44:07;;;;;;;27.52;8.30;;;11.90;99.90;;;12.16;75.52;102554.53;5054041;28;20040;-68
2021/11/18 04:46:36;;;;;;;26.88;8.48;;;11.80;99.90;;;12.14;75.58;102537.69;5052466;28;20059;-68
2021/11/18 04:49:07;;;;;;;24.27;8.00;;;11.80;99.90;;;12.11;75.78;102540.31;5052616;28;20083;-68
2021/11/18 04:51:36;;;;;;;27.83;8.80;;;11.80;99.90;;;12.09;76.19;102547.34;5052188;28;20072;-68
2021/11/18 04:54:05;;;;;;;23.48;7.53;;;11.80;99.90;;;12.04;76.66;102555.22;5053837;28;20048;-68
2021/11/18 04:56:36;;;;;;;28.23;8.88;;;11.70;99.90;;;11.95;76.62;102535.63;5052502;28;20069;-68
2021/11/18 04:59:06;;;;;;;29.10;7.53;;;11.70;99.90;;;11.85;76.84;102516.00;5052531;28;20048;-68
2021/11/18 05:01:37;;;;;;;31.55;8.70;;;11.70;99.90;;;11.81;76.94;102506.22;5069081;28;20169;-68
2021/11/18 05:04:08;;;;;;;27.08;8.10;;;11.70;99.90;;;12.00;77.14;102557.81;5052235;28;20387;-68
2021/11/18 05:06:36;;;;;;;32.88;8.38;;;11.70;99.90;;;11.89;77.26;102535.50;5053905;28;20052;-68
2021/11/18 05:09:08;;;;;;;34.33;8.60;;;11.70;99.90;;;11.82;78.17;102552.19;5068922;28;20527;-69
2021/11/18 05:11:41;;;;;;;27.13;7.97;;;11.60;99.90;;;11.54;78.78;102522.50;5052243;28;20410;-67
2021/11/18 05:14:12;;;;;;;33.58;9.15;;;11.50;99.90;;;11.62;79.22;102530.59;5052242;28;20102;-68
2021/11/18 05:16:41;;;;;;;32.42;8.63;;;11.40;99.90;;;11.81;79.23;102567.19;5069102;28;20067;-69
2021/11/18 05:19:10;;;;;;;30.30;9.27;;;11.50;99.90;;;11.83;79.38;102565.47;5052166;28;20085;-68
2021/11/18 05:21:41;;;;;;;27.38;9.00;;;11.50;99.90;;;11.83;79.20;102561.97;5052109;28;20044;-68
2021/11/18 05:24:11;;;;;;;25.13;8.18;;;11.50;99.90;;;11.76;79.52;102560.94;5052230;28;20055;-69
2021/11/18 05:26:41;;;;;;;32.65;7.82;;;11.50;99.90;;;11.75;79.62;102560.03;5052098;28;20443;-67
2021/11/18 05:29:10;;;;;;;31.05;7.53;;;11.40;99.90;;;11.69;80.00;102556.41;5052006;28;20053;-67
2021/11/18 05:31:38;;;;;;;35.83;8.77;;;11.40;99.90;;;11.70;79.98;102561.72;5051887;28;20044;-67
2021/11/18 05:34:30;;;;;;;35.53;8.20;;;11.40;99.90;;;11.72;80.12;102562.66;5052014;28;20045;-67
2021/11/18 05:36:58;;;;;;;30.05;9.15;;;11.40;99.90;;;11.63;80.14;102566.84;5068646;28;20099;-67
2021/11/18 05:39:26;;;;;;;26.63;8.40;;;11.40;99.90;;;11.65;80.26;102546.56;5051854;28;20049;-67
2021/11/18 05:41:57;;;;;;;33.53;9.15;;;11.40;99.90;;;11.66;80.37;102554.59;5051966;28;20106;-67
2021/11/18 05:44:26;;;;;;;37.00;9.70;;;11.30;99.90;;;11.68;80.49;102562.56;5068710;28;20628;-67
2021/11/18 05:46:55;;;;;;;37.85;7.93;;;11.40;99.90;;;11.67;80.63;102550.19;5051822;28;20053;-67
2021/11/18 05:49:25;;;;;;;25.90;8.20;;;11.40;99.90;;;11.72;80.60;102559.09;5068614;28;20049;-67
2021/11/18 05:51:54;;;;;;;27.00;7.95;;;11.40;99.90;;;11.60;80.98;102553.53;5053162;28;20427;-67
2021/11/18 05:54:26;;;;;;;33.58;8.48;;;11.30;99.90;;;11.59;81.37;102549.97;5053956;28;20494;-67
2021/11/18 05:56:55;;;;;;;28.00;7.85;;;11.30;99.90;;;11.72;81.22;102561.75;5072588;28;20098;-67
2021/11/18 05:59:24;;;;;;;31.57;8.60;;;11.40;99.90;;;11.66;81.20;102551.94;5055883;28;20115;-67
2021/11/18 06:01:57;;;;;;;30.08;8.82;;;11.40;99.90;;;11.68;81.28;102562.56;5056003;28;20052;-67
2021/11/18 06:04:27;;;;;;;29.13;8.27;;;11.40;99.90;;;11.61;81.72;102568.59;5056863;28;20495;-67
2021/11/18 06:07:04;;;;;;;28.88;9.10;;;11.30;99.90;;;11.57;82.10;102561.44;5056024;28;20499;-67
2021/11/18 06:09:33;;;;;;;31.35;8.80;;;11.20;99.90;;;11.61;82.28;102556.19;5055658;28;20507;-67
2021/11/18 06:12:08;;;;;;;29.25;8.50;;;11.30;99.90;;;11.65;82.07;102579.28;5055271;28;20075;-67
2021/11/18 06:14:39;;;;;;;28.75;8.45;;;11.40;99.90;;;11.65;81.75;102573.97;5072305;28;20049;-67
2021/11/18 06:17:10;;;;;;;36.67;9.50;;;11.40;99.90;;;11.67;81.72;102574.91;5055631;28;20362;-67
2021/11/18 06:19:39;;;;;;;29.55;8.77;;;11.40;99.90;;;11.67;81.76;102571.38;5072072;28;20076;-67
2021/11/18 06:22:07;;;;;;;34.92;9.50;;;11.30;99.90;;;11.69;81.58;102577.63;5056265;28;20063;-67
2021/11/18 06:24:56;;;;;;;31.98;8.35;;;11.40;99.90;;;11.61;81.30;102574.75;5056371;28;20057;-67
2021/11/18 06:27:29;;;;;;;26.58;7.93;;;11.30;99.90;;;11.49;81.39;102556.00;5071701;28;20549;-67
2021/11/18 06:30:00;;;;;;;36.40;9.15;;;11.30;99.90;;;11.51;81.91;102556.03;5055054;28;20449;-66
2021/11/18 06:32:29;;;;;;;30.50;8.32;;;11.30;99.90;;;11.53;82.08;102563.16;5071799;28;20118;-67
2021/11/18 06:34:57;;;;;;;28.77;8.00;;;11.20;99.90;;;11.38;82.19;102554.00;5055294;28;20040;-67
2021/11/18 06:37:25;;;;;;;27.58;8.68;;;11.10;99.90;;;11.49;82.17;102571.00;5056634;28;20431;-66
2021/11/18 06:39:54;;;;;;;29.10;8.57;;;11.20;99.90;;;11.49;81.97;102563.94;5071772;28;20041;-66
2021/11/18 06:42:24;;;;;;;34.70;8.50;;;11.20;99.90;;;11.43;82.18;102569.13;5055027;28;20410;-66
2021/11/18 06:45:00;;;;;;;41.42;8.70;;;11.10;99.90;;;11.45;82.50;102588.59;5054794;28;20051;-67
2021/11/18 06:47:29;;;;;;;29.90;8.80;;;11.10;99.90;;;11.47;82.60;102575.38;5054979;28;20053;-67
2021/11/18 06:50:00;;;;;;;32.10;9.20;;;11.10;99.90;;;11.49;82.42;102574.56;5054947;28;20049;-68
2021/11/18 06:52:28;;;;;;;29.67;9.32;;;11.20;99.90;;;11.45;82.47;102578.00;5054480;28;20048;-67
2021/11/18 06:54:57;;;;;;;37.50;8.93;;;11.20;99.90;;;11.36;82.44;102575.16;5071542;28;20045;-67
2021/11/18 06:57:25;;;;;;;37.55;10.13;;;11.10;99.90;;;11.29;82.64;102562.66;5054601;28;20049;-67
2021/11/18 06:59:57;;;;;;;36.33;10.38;;;11.10;99.90;;;11.45;82.75;102593.00;5071339;28;20398;-67
2021/11/18 07:02:27;;;;;;;32.92;8.88;;;11.10;99.90;;;11.45;82.74;102599.19;5071074;28;20239;-67
2021/11/18 07:04:56;;;;;;;27.50;8.93;;;11.10;99.90;;;11.43;82.61;102600.03;5054072;28;20114;-68
2021/11/18 07:07:25;;;;;;;31.13;9.63;;;11.10;99.90;;;11.44;82.50;102615.94;5055809;28;20102;-65
2021/11/18 07:10:16;;;;;;;35.22;10.15;;;11.10;99.90;;;11.42;82.75;102612.38;5054762;28;20037;-67
2021/11/18 07:12:52;;;;;;;29.15;8.98;;;11.10;99.90;;;11.38;82.97;102615.81;5054266;28;20055;-67
2021/11/18 07:15:23;;;;;;;31.10;9.15;;;11.10;99.90;;;11.41;83.03;102629.16;5055643;28;20472;-67
2021/11/18 07:17:58;;;;;;;28.10;8.48;;;11.00;99.90;;;11.45;82.85;102624.78;5070914;28;20052;-66
2021/11/18 07:20:28;;;;;;;29.85;8.98;;;11.10;99.90;;;11.47;82.89;102626.63;5054371;28;20048;-67
2021/11/18 07:22:57;;;;;;;25.08;9.00;;;11.10;99.90;;;11.43;82.88;102622.13;5054275;28;20280;-67
2021/11/18 07:25:35;;;;;;;28.55;9.45;;;11.20;99.90;;;11.35;82.62;102623.72;5054265;28;20041;-66
2021/11/18 07:28:07;;;;;;;34.00;10.00;;;11.20;99.90;;;11.44;82.62;102628.31;5054147;28;20487;-67
2021/11/18 07:30:35;;;;;;;29.33;8.90;;;11.10;99.90;;;11.50;82.73;102637.28;5054239;28;20110;-65
2021/11/18 07:33:06;;;;;;;32.72;9.45;;;11.20;99.90;;;11.49;82.47;102637.25;5054065;28;20073;-66
2021/11/18 07:35:35;;;;;;;26.05;8.57;;;11.20;99.90;;;11.54;82.35;102638.22;5070572;28;20144;-67
2021/11/18 07:38:04;;;;;;;31.83;8.80;;;11.20;99.90;;;11.57;82.40;102640.94;5070444;28;20039;-68
2021/11/18 07:40:40;;;;;;;37.35;9.50;;;11.20;99.90;;;11.57;82.12;102640.94;5054035;28;20131;-68
2021/11/18 07:43:23;;;;;;;29.33;9.90;;;11.20;99.90;;;11.50;82.08;102634.63;5070592;28;20060;-66
2021/11/18 07:45:53;;;;;;;31.23;9.27;;;11.30;99.90;;;11.59;82.12;102633.94;5054752;28;20095;-67
2021/11/18 07:48:38;;;;;;;35.17;9.68;;;11.20;99.90;;;11.60;82.12;102641.91;5054968;28;20053;-67
2021/11/18 07:51:10;;;;;;;28.95;8.68;;;11.30;99.90;;;11.59;82.17;102640.09;5053540;28;20135;-67
2021/11/18 07:53:40;;;;;;;36.70;10.27;;;11.30;99.90;;;11.56;82.45;102628.53;5070330;28;20049;-64
2021/11/18 07:56:11;;;;;;;28.02;9.27;;;11.20;99.90;;;11.53;82.48;102624.09;5070381;28;20053;-65
2021/11/18 07:58:40;;;;;;;33.08;9.57;;;11.30;99.90;;;11.37;82.77;102595.50;5053629;28;20041;-65
2021/11/18 08:01:10;;;;;;;28.73;8.90;;;11.30;99.90;;;11.55;82.79;102632.06;5053457;28;20049;-66
2021/11/18 08:03:41;;;;;;;30.02;9.73;;;11.20;99.90;;;11.52;82.94;102638.19;5053504;28;20561;-66
2021/11/18 08:06:24;;;;;;;26.75;9.45;;;11.30;99.90;;;11.56;82.83;102632.09;5053528;28;20136;-66
2021/11/18 08:08:58;;;;;;;26.65;9.75;;;11.30;99.90;;;11.51;82.96;102614.31;5070114;28;20406;-66
2021/11/18 08:11:40;;;;;;;26.08;9.73;;;11.30;99.90;;;11.62;82.77;102629.56;5069995;28;20418;-66
2021/11/18 08:14:10;;;;;;;29.92;9.18;;;11.40;99.90;;;11.66;82.73;102628.81;5069883;28;20072;-66
2021/11/18 08:16:40;;;;;;;34.80;9.30;;;11.40;99.90;;;11.65;82.82;102628.75;5069004;28;20049;-66
2021/11/18 08:19:10;;;;;;;27.50;9.30;;;11.40;99.90;;;11.67;82.78;102613.81;5053221;28;20085;-66
2021/11/18 08:21:40;;;;;;;31.83;9.75;;;11.40;99.90;;;11.70;82.96;102627.09;5052940;28;20151;-67
2021/11/18 08:24:11;;;;;;;30.98;9.88;;;11.40;99.90;;;11.79;83.10;102637.88;5053040;28;20461;-67
2021/11/18 08:26:41;;;;;;;36.97;9.85;;;11.50;99.90;;;11.72;83.10;102620.97;5069837;28;20047;-67
2021/11/18 08:29:17;;;;;;;36.40;9.93;;;11.50;99.90;;;11.87;82.97;102627.41;5069717;28;20114;-66
2021/11/18 08:31:48;;;;;;;29.67;9.82;;;11.60;99.90;;;12.07;82.72;102642.84;5069437;28;20095;-67
2021/11/18 08:34:41;;;;;;;35.17;9.93;;;11.80;99.90;;;12.20;81.88;102635.97;5053228;28;20048;-67
2021/11/18 08:37:14;;;;;;;39.15;10.50;;;11.90;99.90;;;12.17;81.86;102607.66;5052915;28;20045;-66
2021/11/18 08:39:45;;;;;;;31.63;10.43;;;12.00;99.90;;;12.55;81.28;102634.78;5053155;28;20446;-67
2021/11/18 08:42:18;;;;;;;33.95;10.15;;;12.20;99.90;;;12.58;81.13;102625.09;5053611;28;20071;-67
2021/11/18 08:44:50;;;;;;;29.13;10.30;;;12.40;99.90;;;13.21;80.11;102637.56;5052153;28;20091;-69
2021/11/18 08:47:24;;;;;;;27.30;9.25;;;12.80;99.90;;;13.54;79.14;102640.66;5052759;28;20037;-67
2021/11/18 08:50:00;;;;;;;26.77;9.30;;;13.20;99.90;;;13.42;77.76;102556.31;5069322;28;20048;-67
2021/11/18 08:52:32;;;;;;;35.35;9.75;;;13.60;99.90;;;14.13;76.87;102620.00;5069070;28;20055;-68
2021/11/18 08:55:05;;;;;;;29.85;9.95;;;13.80;99.90;;;14.26;75.83;102645.84;5069128;28;20049;-68
2021/11/18 08:57:37;;;;;;;29.27;9.43;;;14.20;99.90;;;14.62;74.05;102635.53;5052536;28;20508;-68
2021/11/18 09:00:25;;;;;;;28.40;9.75;;;14.40;99.90;;;14.78;73.41;102647.19;5052388;28;20498;-67
2021/11/18 09:03:27;;;;;;;29.20;9.05;;;14.50;99.90;;;14.73;72.92;102643.59;5049706;28;20048;-67
2021/11/18 09:05:58;;;;;;;33.10;9.32;;;14.40;99.90;;;14.78;73.16;102633.84;5068942;28;20546;-66
2021/11/18 09:08:28;;;;;;;25.67;8.80;;;14.50;99.90;;;15.03;73.00;102639.34;5052179;28;20049;-66
2021/11/18 09:11:08;;;;;;;27.70;9.10;;;14.70;99.90;;;15.22;72.07;102633.22;5068980;28;20055;-65
2021/11/18 09:13:45;;;;;;;33.65;9.60;;;14.90;99.90;;;15.43;71.48;102639.59;5068857;28;20443;-66
2021/11/18 09:16:16;;;;;;;24.83;8.88;;;15.10;99.90;;;15.72;70.56;102651.22;5068877;28;20059;-72
2021/11/18 09:19:14;;;;;;;34.28;9.00;;;15.40;99.90;;;15.89;69.24;102649.53;5051915;28;20045;-66
2021/11/18 09:21:47;;;;;;;26.85;9.30;;;15.60;99.90;;;16.10;68.79;102657.56;5052440;28;20060;-66
2021/11/18 09:24:28;;;;;;;28.05;9.63;;;15.80;99.90;;;16.29;68.09;102656.69;5068828;28;20048;-67
2021/11/18 09:26:59;;;;;;;26.02;8.32;;;16.00;99.90;;;16.30;67.51;102653.13;5068762;28;20083;-66
2021/11/18 09:29:29;;;;;;;31.63;9.25;;;16.10;99.90;;;16.24;67.24;102643.31;5068362;28;20061;-65
2021/11/18 09:32:07;;;;;;;25.17;9.15;;;16.00;99.90;;;16.23;67.15;102627.31;5052214;28;20052;-66
2021/11/18 09:34:40;;;;;;;25.45;9.43;;;16.00;99.90;;;15.97;66.79;102548.97;5051669;28;20044;-64
2021/11/18 09:37:11;;;;;;;27.20;8.98;;;16.20;99.90;;;16.38;66.65;102643.34;5053231;28;20124;-69
2021/11/18 09:39:41;;;;;;;31.50;8.98;;;16.20;99.90;;;16.43;66.66;102660.28;5051890;28;20083;-65
2021/11/18 09:42:22;;;;;;;28.95;9.80;;;16.10;99.90;;;16.34;66.94;102662.06;5052424;28;20131;-65
2021/11/18 09:45:13;;;;;;;27.90;9.30;;;16.00;99.90;;;16.34;66.82;102662.91;5051545;28;20081;-65
2021/11/18 09:48:37;;;;;;;30.70;9.73;;;16.00;99.90;;;16.55;66.65;102659.41;5051443;28;20053;-65
2021/11/18 09:51:24;;;;;;;32.83;9.65;;;16.20;99.90;;;16.54;66.38;102677.22;5051274;28;20049;-67
2021/11/18 09:54:33;;;;;;;30.92;9.93;;;16.20;99.90;;;16.76;66.32;102683.47;5051703;28;20533;-67
2021/11/18 09:57:19;;;;;;;27.67;8.73;;;16.40;99.90;;;16.84;65.65;102665.63;5068525;28;20051;-67
2021/11/18 10:00:10;;;;;;;28.15;9.55;;;16.60;99.90;;;17.00;65.13;102673.63;5051620;28;20493;-67
2021/11/18 10:03:15;;;;;;;25.00;8.82;;;16.70;99.90;;;17.09;64.77;102678.06;5053068;28;20041;-67
2021/11/18 10:06:00;;;;;;;27.85;8.73;;;16.80;99.90;;;17.27;64.69;102686.03;5051745;28;20049;-67
2021/11/18 10:08:44;;;;;;;31.35;9.65;;;17.00;99.90;;;17.50;64.16;102686.00;5068384;28;20076;-67
2021/11/18 10:11:21;;;;;;;31.30;9.88;;;17.20;99.90;;;17.64;64.06;102685.03;5068018;28;20045;-67
2021/11/18 10:14:36;;;;;;;31.98;9.27;;;17.30;99.90;;;17.72;63.31;102696.59;5068340;28;20490;-67
2021/11/18 10:17:22;;;;;;;30.88;8.98;;;17.40;99.90;;;17.57;63.05;102685.06;5066141;28;20410;-68
2021/11/18 10:20:03;;;;;;;29.52;8.85;;;17.40;99.90;;;17.52;63.07;102695.78;5068244;28;20445;-68
2021/11/18 10:22:36;;;;;;;36.38;8.95;;;17.30;99.90;;;17.56;63.24;102680.59;5052204;28;20433;-69
2021/11/18 10:25:08;;;;;;;24.42;7.22;;;17.30;99.90;;;17.50;62.78;102686.00;5052384;28;20052;-69
2021/11/18 10:27:43;;;;;;;31.27;8.18;;;17.30;99.90;;;17.42;63.01;102677.94;5068486;28;20479;-69
2021/11/18 10:30:21;;;;;;;29.83;8.32;;;17.20;99.90;;;17.24;63.20;102685.16;5052390;28;20041;-68
2021/11/18 10:33:01;;;;;;;32.13;9.23;;;17.00;99.90;;;17.46;63.44;102684.19;5052384;28;20045;-68